Time;durP1;ratioP1;P1;durP2;ratioP2;P2;SDS_P1;SDS_P2;PMS_P1;PMS_P2;Temp;Humidity;BMP_temperature;BMP_pressure;BME280_temperature;BME280_humidity;BME280_pressure;Samples;Min_cycle;Max_cycle;Signal;HPM_P1;HPM_P2
2023/08/31 00:03:03;;;;;;;3.33;1.92;;;19.10;99.90;;;;;;10098219;28;20490;-71
2023/08/31 00:07:54;;;;;;;3.10;1.13;;;19.00;99.90;;;;;;10105171;28;20044;-70
2023/08/31 00:12:46;;;;;;;2.55;1.10;;;19.00;99.90;;;;;;10100987;28;20024;-70
2023/08/31 00:17:37;;;;;;;3.95;0.90;;;19.00;99.90;;;;;;10101201;28;20055;-70
2023/08/31 00:22:29;;;;;;;1.65;0.80;;;19.10;99.90;;;;;;10122260;28;20037;-69
2023/08/31 00:27:21;;;;;;;2.65;1.00;;;19.10;99.90;;;;;;10111794;28;20114;-69
2023/08/31 00:32:15;;;;;;;1.90;1.10;;;19.00;99.90;;;;;;10094776;28;20101;-69
2023/08/31 00:37:05;;;;;;;3.15;1.15;;;19.00;99.90;;;;;;10115970;28;20083;-70
2023/08/31 00:41:56;;;;;;;1.50;1.15;;;19.00;99.90;;;;;;10129862;22;20528;-75
2023/08/31 00:46:46;;;;;;;2.30;1.10;;;19.00;99.90;;;;;;10128374;28;20063;-75
2023/08/31 00:51:37;;;;;;;2.53;1.33;;;18.90;99.90;;;;;;10120199;28;20157;-74
2023/08/31 00:56:28;;;;;;;2.45;0.98;;;18.80;99.90;;;;;;10125155;28;20108;-75
2023/08/31 01:01:37;;;;;;;1.98;1.00;;;18.80;99.90;;;;;;10123117;28;20038;-75
2023/08/31 01:06:50;;;;;;;1.85;0.95;;;18.80;99.90;;;;;;10131028;28;20063;-74
2023/08/31 01:11:54;;;;;;;1.33;0.90;;;18.80;99.90;;;;;;10126528;28;20025;-74
2023/08/31 01:16:49;;;;;;;2.13;1.00;;;18.70;99.90;;;;;;10132697;28;20036;-74
2023/08/31 01:21:46;;;;;;;2.00;1.20;;;18.60;99.90;;;;;;10118322;28;20202;-74
2023/08/31 01:26:37;;;;;;;2.10;1.25;;;18.50;99.90;;;;;;10134853;28;20039;-75
2023/08/31 01:31:27;;;;;;;2.38;0.90;;;18.50;99.90;;;;;;10117746;28;20021;-73
2023/08/31 01:36:24;;;;;;;2.25;1.23;;;18.70;99.90;;;;;;10135966;28;21397;-73
2023/08/31 01:41:18;;;;;;;1.65;1.15;;;18.70;99.90;;;;;;10139694;28;20047;-75
2023/08/31 01:46:10;;;;;;;2.15;1.25;;;18.60;99.90;;;;;;10134608;28;20036;-74
2023/08/31 01:51:01;;;;;;;1.80;1.05;;;18.50;99.90;;;;;;10120801;28;20521;-75
2023/08/31 01:55:51;;;;;;;0.73;0.73;;;18.60;99.90;;;;;;10109659;28;20072;-75
2023/08/31 02:00:42;;;;;;;2.55;0.90;;;18.60;99.90;;;;;;10130893;28;20063;-74
2023/08/31 02:05:33;;;;;;;3.63;1.40;;;18.60;99.90;;;;;;10106755;28;20071;-75
2023/08/31 02:10:23;;;;;;;2.65;1.35;;;18.60;99.90;;;;;;10134045;28;20038;-75
2023/08/31 02:15:14;;;;;;;1.27;0.88;;;18.60;99.90;;;;;;10138464;28;20074;-75
2023/08/31 02:20:06;;;;;;;4.88;2.25;;;18.50;99.90;;;;;;10128975;28;20032;-74
2023/08/31 02:24:56;;;;;;;2.03;1.50;;;18.50;99.90;;;;;;10140210;28;20028;-72
2023/08/31 02:29:47;;;;;;;1.55;1.00;;;18.40;99.90;;;;;;10110720;28;20041;-71
2023/08/31 02:34:38;;;;;;;3.20;0.95;;;18.40;99.90;;;;;;10114655;28;20024;-72
2023/08/31 02:39:28;;;;;;;1.25;0.88;;;18.40;99.90;;;;;;10133442;28;20024;-71
2023/08/31 02:44:19;;;;;;;1.48;0.63;;;18.30;99.90;;;;;;10134864;28;20152;-73
2023/08/31 02:49:09;;;;;;;2.42;1.15;;;18.30;99.90;;;;;;10136002;28;20094;-72
2023/08/31 02:54:00;;;;;;;2.42;1.40;;;18.40;99.90;;;;;;10138485;28;20032;-75
2023/08/31 02:58:51;;;;;;;4.00;1.42;;;18.40;99.90;;;;;;10128825;28;20462;-74
2023/08/31 03:03:43;;;;;;;1.88;1.63;;;18.40;99.90;;;;;;10136359;28;20031;-74
2023/08/31 03:08:33;;;;;;;1.25;1.00;;;18.40;99.90;;;;;;10131209;28;20068;-69
2023/08/31 03:13:24;;;;;;;5.47;1.00;;;18.30;99.90;;;;;;10136030;28;20812;-74
2023/08/31 03:18:15;;;;;;;2.55;1.02;;;18.30;99.90;;;;;;10119218;28;20032;-76
2023/08/31 03:23:05;;;;;;;1.83;0.88;;;18.30;99.90;;;;;;10125384;28;20025;-74
2023/08/31 03:27:56;;;;;;;2.20;0.90;;;18.20;99.90;;;;;;10101826;28;20562;-72
2023/08/31 03:32:48;;;;;;;2.67;1.20;;;18.30;99.90;;;;;;10107648;28;20021;-71
2023/08/31 03:37:38;;;;;;;1.38;1.27;;;18.30;99.90;;;;;;10133674;28;20067;-70
2023/08/31 03:42:29;;;;;;;1.60;1.00;;;18.30;99.90;;;;;;10130850;28;20036;-75
2023/08/31 03:47:20;;;;;;;1.75;1.10;;;18.20;99.90;;;;;;10133685;28;20037;-75
2023/08/31 03:52:10;;;;;;;1.75;1.10;;;18.30;99.90;;;;;;10101803;28;20045;-71
2023/08/31 03:57:01;;;;;;;1.55;1.08;;;18.30;99.90;;;;;;10089238;28;20420;-73
2023/08/31 04:01:52;;;;;;;2.65;1.20;;;18.40;99.90;;;;;;10129475;28;20025;-75
2023/08/31 04:06:43;;;;;;;3.22;1.20;;;18.30;99.90;;;;;;10119134;28;20589;-73
2023/08/31 04:11:33;;;;;;;1.35;1.10;;;18.30;99.90;;;;;;10121454;28;20136;-71
2023/08/31 04:16:24;;;;;;;1.25;1.02;;;18.30;99.90;;;;;;10110958;28;20082;-71
2023/08/31 04:21:15;;;;;;;1.20;1.10;;;18.30;99.90;;;;;;10110738;28;20036;-77
2023/08/31 04:26:14;;;;;;;1.75;1.05;;;18.30;99.90;;;;;;10115459;28;20507;-75
2023/08/31 04:31:07;;;;;;;2.30;1.25;;;18.30;99.90;;;;;;10131653;28;20376;-76
2023/08/31 04:35:57;;;;;;;2.22;1.15;;;18.20;99.90;;;;;;10118942;28;20024;-74
2023/08/31 04:40:48;;;;;;;3.80;2.08;;;18.10;99.90;;;;;;10118142;28;20028;-77
2023/08/31 04:45:39;;;;;;;3.42;2.25;;;18.00;99.90;;;;;;10106664;28;20063;-77
2023/08/31 04:50:29;;;;;;;5.25;2.50;;;18.00;99.90;;;;;;10114574;28;20271;-77
2023/08/31 04:55:22;;;;;;;2.63;1.13;;;18.00;99.90;;;;;;10111313;28;20503;-74
2023/08/31 05:00:13;;;;;;;3.63;1.73;;;18.10;99.90;;;;;;10134515;28;20036;-71
2023/08/31 05:05:05;;;;;;;6.00;1.85;;;18.00;99.90;;;;;;10107514;28;20060;-75
2023/08/31 05:09:55;;;;;;;3.47;1.90;;;18.00;99.90;;;;;;10129789;28;20109;-73
2023/08/31 05:14:46;;;;;;;5.03;1.70;;;18.00;99.90;;;;;;10134387;28;20066;-73
2023/08/31 05:19:37;;;;;;;6.15;2.28;;;18.10;99.90;;;;;;10115617;28;20037;-73
2023/08/31 05:24:27;;;;;;;2.78;1.75;;;18.00;99.90;;;;;;10120329;28;20033;-76
2023/08/31 05:29:18;;;;;;;4.85;1.88;;;18.10;99.90;;;;;;10107708;28;20056;-75
2023/08/31 05:34:16;;;;;;;7.00;1.75;;;17.90;99.90;;;;;;10144305;28;20047;-73
2023/08/31 05:39:07;;;;;;;2.63;1.73;;;17.90;99.90;;;;;;10114337;28;20061;-75
2023/08/31 05:43:58;;;;;;;3.90;1.92;;;17.90;99.90;;;;;;10138358;28;20059;-74
2023/08/31 05:48:49;;;;;;;4.22;1.50;;;17.90;99.90;;;;;;10140589;28;20032;-75
2023/08/31 05:53:39;;;;;;;3.80;2.33;;;17.90;99.90;;;;;;10136294;28;20103;-73
2023/08/31 05:58:34;;;;;;;3.33;1.50;;;17.70;99.90;;;;;;10133424;28;20551;-71
2023/08/31 06:03:25;;;;;;;1.80;1.13;;;17.80;99.90;;;;;;10131976;28;20031;-77
2023/08/31 06:08:15;;;;;;;2.28;1.45;;;17.80;99.90;;;;;;10127544;28;20384;-76
2023/08/31 06:13:06;;;;;;;2.70;1.52;;;17.80;99.90;;;;;;10128044;28;20027;-75
2023/08/31 06:17:57;;;;;;;2.35;1.10;;;17.90;99.90;;;;;;10121211;28;20097;-71
2023/08/31 06:22:48;;;;;;;6.35;1.63;;;17.80;99.90;;;;;;10128862;28;20052;-76
2023/08/31 06:27:40;;;;;;;3.10;1.48;;;17.90;99.90;;;;;;10138848;28;20044;-77
2023/08/31 06:32:31;;;;;;;3.20;1.42;;;18.00;99.90;;;;;;10126273;28;20487;-75
2023/08/31 06:37:21;;;;;;;3.28;1.30;;;18.10;99.90;;;;;;10126666;28;20115;-76
2023/08/31 06:42:12;;;;;;;9.82;3.45;;;18.10;99.90;;;;;;10135638;28;20059;-73
2023/08/31 06:47:03;;;;;;;4.00;1.50;;;17.90;99.90;;;;;;10134030;28;20040;-71
2023/08/31 06:51:53;;;;;;;2.67;1.45;;;17.70;99.90;;;;;;10123794;28;20021;-70
2023/08/31 06:56:44;;;;;;;5.80;1.60;;;17.80;99.90;;;;;;10107876;28;20028;-71
2023/08/31 07:01:35;;;;;;;1.80;1.23;;;17.70;99.90;;;;;;10118608;28;20028;-70
2023/08/31 07:06:26;;;;;;;4.65;2.22;;;17.80;99.90;;;;;;10125851;28;20089;-72
2023/08/31 07:11:18;;;;;;;4.30;1.55;;;17.90;99.90;;;;;;10124878;28;20374;-70
2023/08/31 07:16:08;;;;;;;3.78;1.85;;;17.80;99.90;;;;;;10132192;28;20073;-70
2023/08/31 07:20:59;;;;;;;3.90;1.45;;;18.00;99.90;;;;;;10141137;28;20021;-71
2023/08/31 07:25:50;;;;;;;2.15;1.35;;;17.90;99.90;;;;;;10109203;28;20040;-72
2023/08/31 07:30:40;;;;;;;2.78;1.50;;;18.00;99.90;;;;;;10124139;28;20297;-73
2023/08/31 07:35:31;;;;;;;2.45;1.35;;;18.00;99.90;;;;;;10129952;28;20042;-70
2023/08/31 07:40:22;;;;;;;2.65;1.88;;;18.10;99.90;;;;;;10129105;28;20032;-76
2023/08/31 07:45:13;;;;;;;4.88;1.40;;;18.10;99.90;;;;;;10135713;28;20261;-74
2023/08/31 07:50:04;;;;;;;1.95;1.15;;;18.30;99.90;;;;;;10135764;28;20036;-72
2023/08/31 07:54:55;;;;;;;2.92;1.60;;;18.30;99.90;;;;;;10135398;28;20111;-74
2023/08/31 07:59:45;;;;;;;3.13;1.48;;;18.30;99.90;;;;;;10126963;28;20107;-71
2023/08/31 08:04:36;;;;;;;3.45;1.67;;;18.40;99.90;;;;;;10124871;28;20017;-75
2023/08/31 08:09:29;;;;;;;3.38;1.75;;;18.50;99.90;;;;;;10128565;28;20047;-74
2023/08/31 08:14:20;;;;;;;3.63;1.23;;;18.70;99.90;;;;;;10132437;28;20501;-72
2023/08/31 08:19:11;;;;;;;2.47;1.10;;;18.70;99.90;;;;;;10133403;28;20118;-75
2023/08/31 08:24:01;;;;;;;2.75;1.75;;;18.70;99.90;;;;;;10131922;28;20119;-74
2023/08/31 08:28:52;;;;;;;2.13;1.50;;;18.70;99.90;;;;;;10131487;28;20406;-74
2023/08/31 08:33:43;;;;;;;3.25;1.45;;;18.70;99.90;;;;;;10111873;28;20033;-70
2023/08/31 08:38:33;;;;;;;6.97;1.30;;;18.80;99.90;;;;;;10111675;28;20066;-75
2023/08/31 08:43:26;;;;;;;3.15;1.35;;;18.80;99.90;;;;;;10121691;28;20113;-80
2023/08/31 08:48:18;;;;;;;2.65;1.20;;;18.70;99.90;;;;;;10137054;28;20029;-76
2023/08/31 08:53:10;;;;;;;3.33;2.03;;;18.80;99.90;;;;;;10140739;28;20020;-69
2023/08/31 08:58:03;;;;;;;3.90;1.95;;;18.90;99.90;;;;;;10132750;28;20017;-68
2023/08/31 09:02:54;;;;;;;3.50;1.08;;;18.90;99.90;;;;;;10118595;28;20506;-69
2023/08/31 09:08:04;;;;;;;2.47;1.33;;;19.00;99.90;;;;;;10137016;28;20037;-71
2023/08/31 09:12:54;;;;;;;3.22;1.40;;;19.00;99.90;;;;;;10123475;28;20036;-72
2023/08/31 09:17:47;;;;;;;3.38;1.33;;;18.90;99.90;;;;;;10142514;28;20029;-82
2023/08/31 09:22:43;;;;;;;5.40;1.20;;;19.00;99.90;;;;;;10103118;28;20037;-79
2023/08/31 09:27:38;;;;;;;3.05;1.27;;;19.10;99.90;;;;;;10137173;28;20037;-68
2023/08/31 09:32:29;;;;;;;2.13;0.90;;;19.10;99.90;;;;;;10119164;28;20072;-69
2023/08/31 09:37:20;;;;;;;3.72;1.25;;;19.10;99.90;;;;;;10128327;28;20290;-70
2023/08/31 09:42:10;;;;;;;2.60;1.27;;;19.20;99.90;;;;;;10133756;28;20045;-69
2023/08/31 09:47:03;;;;;;;3.60;1.52;;;19.20;99.90;;;;;;10123169;28;20036;-75
2023/08/31 09:51:54;;;;;;;3.05;1.45;;;19.30;99.90;;;;;;10139057;28;20020;-70
2023/08/31 09:56:46;;;;;;;2.30;1.23;;;19.30;99.90;;;;;;10130626;28;20024;-73
2023/08/31 10:01:37;;;;;;;3.33;1.13;;;19.40;99.90;;;;;;10138082;28;20024;-73
2023/08/31 10:06:29;;;;;;;3.38;1.63;;;19.50;99.90;;;;;;10139705;28;20062;-72
2023/08/31 10:11:26;;;;;;;2.35;1.15;;;19.50;99.90;;;;;;10132120;28;20028;-76
2023/08/31 10:16:18;;;;;;;3.67;1.35;;;19.60;99.90;;;;;;10112327;28;20024;-76
2023/08/31 10:21:09;;;;;;;2.58;1.50;;;19.70;99.90;;;;;;10113570;28;20438;-78
2023/08/31 10:26:03;;;;;;;4.82;1.60;;;19.60;99.90;;;;;;10109568;28;20033;-72
2023/08/31 10:31:05;;;;;;;4.50;1.48;;;19.50;99.90;;;;;;10132540;28;20032;-71
2023/08/31 10:35:56;;;;;;;4.82;1.30;;;19.50;99.90;;;;;;10132097;28;20398;-73
2023/08/31 10:41:09;;;;;;;6.13;1.58;;;19.60;99.90;;;;;;10138224;28;20013;-75
2023/08/31 10:46:00;;;;;;;2.10;1.10;;;19.60;99.90;;;;;;10126452;28;20059;-75
2023/08/31 10:50:51;;;;;;;4.70;1.88;;;19.60;99.90;;;;;;10121301;28;20025;-73
2023/08/31 10:55:52;;;;;;;3.58;1.75;;;19.60;99.90;;;;;;10130460;28;20020;-74
2023/08/31 11:00:59;;;;;;;4.50;1.58;;;19.60;99.90;;;;;;10138289;28;20115;-72
2023/08/31 11:05:53;;;;;;;6.53;1.60;;;19.60;99.90;;;;;;10142128;28;20036;-75
2023/08/31 11:10:46;;;;;;;3.75;1.70;;;19.80;99.90;;;;;;10136186;28;20055;-75
2023/08/31 11:15:36;;;;;;;2.63;1.85;;;19.80;99.90;;;;;;10141671;28;20124;-75
2023/08/31 11:20:31;;;;;;;2.97;1.38;;;20.00;99.90;;;;;;10126578;28;20092;-73
2023/08/31 11:25:23;;;;;;;4.00;1.40;;;20.20;99.90;;;;;;10132553;28;20548;-75
2023/08/31 11:30:17;;;;;;;2.72;1.17;;;20.20;99.90;;;;;;10110295;28;20506;-75
2023/08/31 11:35:08;;;;;;;6.32;1.42;;;20.30;99.90;;;;;;10132723;28;20406;-75
2023/08/31 11:40:00;;;;;;;1.92;1.40;;;20.40;99.90;;;;;;10130877;28;20020;-75
2023/08/31 11:44:53;;;;;;;3.35;1.55;;;20.40;99.90;;;;;;10119551;28;20131;-76
2023/08/31 11:49:45;;;;;;;3.95;1.45;;;20.30;99.90;;;;;;10120243;28;20042;-74
2023/08/31 11:54:40;;;;;;;6.32;1.75;;;20.40;99.90;;;;;;10107119;28;20082;-69
2023/08/31 11:59:35;;;;;;;1.92;1.20;;;20.40;99.90;;;;;;10109092;28;20036;-70
2023/08/31 12:04:25;;;;;;;4.65;1.95;;;20.40;99.90;;;;;;10123984;28;20029;-74
2023/08/31 12:09:16;;;;;;;1.92;1.15;;;20.50;99.90;;;;;;10111420;28;20028;-72
2023/08/31 12:14:25;;;;;;;2.88;1.98;;;20.70;99.90;;;;;;10104653;28;20035;-75
2023/08/31 12:19:16;;;;;;;1.88;1.10;;;21.00;99.90;;;;;;10107024;28;20021;-74
2023/08/31 12:24:07;;;;;;;2.78;1.40;;;21.10;99.90;;;;;;10121934;28;20024;-82
2023/08/31 12:28:58;;;;;;;3.95;2.00;;;21.10;99.90;;;;;;10115438;28;20107;-72
2023/08/31 12:33:51;;;;;;;2.72;1.25;;;21.10;99.90;;;;;;10131087;28;20495;-74
2023/08/31 12:38:42;;;;;;;4.78;1.40;;;21.00;99.90;;;;;;10110748;28;20039;-75
2023/08/31 12:43:33;;;;;;;4.10;1.60;;;21.00;99.90;;;;;;10121140;28;20387;-78
2023/08/31 12:48:27;;;;;;;5.90;2.13;;;21.00;99.90;;;;;;10142203;28;20052;-85
2023/08/31 12:53:20;;;;;;;4.25;1.77;;;21.00;99.90;;;;;;10133701;22;20049;-76
2023/08/31 12:58:11;;;;;;;5.15;1.35;;;21.00;99.90;;;;;;10132034;28;20071;-74
2023/08/31 13:03:06;;;;;;;2.53;1.30;;;21.20;99.90;;;;;;10110807;28;20391;-74
2023/08/31 13:07:57;;;;;;;4.43;1.35;;;21.20;99.90;;;;;;10110265;28;20169;-73
2023/08/31 13:12:48;;;;;;;4.80;1.23;;;21.10;99.90;;;;;;10112577;28;20112;-73
2023/08/31 13:17:39;;;;;;;3.28;1.30;;;21.00;99.90;;;;;;10118843;28;20110;-74
2023/08/31 13:22:31;;;;;;;3.90;1.30;;;21.00;99.90;;;;;;10125025;28;20060;-71
2023/08/31 13:27:21;;;;;;;3.22;1.45;;;20.80;99.90;;;;;;10136147;28;20491;-72
2023/08/31 13:32:12;;;;;;;4.97;1.50;;;20.80;99.90;;;;;;10118320;28;20036;-71
2023/08/31 13:37:03;;;;;;;1.73;1.08;;;20.80;99.90;;;;;;10125782;28;20028;-72
2023/08/31 13:41:54;;;;;;;1.70;1.17;;;20.80;99.90;;;;;;10117508;28;20020;-72
2023/08/31 13:46:45;;;;;;;2.13;1.15;;;20.80;99.90;;;;;;10117323;28;20614;-72
2023/08/31 13:51:36;;;;;;;4.50;1.50;;;20.80;99.90;;;;;;10128930;28;20040;-72
2023/08/31 13:56:26;;;;;;;5.65;1.45;;;21.00;99.90;;;;;;10125176;28;20036;-73
2023/08/31 14:01:17;;;;;;;3.75;1.17;;;20.90;99.90;;;;;;10131219;28;20036;-73
2023/08/31 14:06:08;;;;;;;1.90;0.98;;;21.00;99.90;;;;;;10132178;28;20043;-73
2023/08/31 14:10:59;;;;;;;11.93;1.70;;;21.10;99.90;;;;;;10122121;28;20032;-66
2023/08/31 14:15:49;;;;;;;6.65;3.30;;;21.20;99.90;;;;;;10125375;28;20034;-71
2023/08/31 14:20:40;;;;;;;1.98;1.13;;;21.10;99.90;;;;;;10132149;28;20120;-70
2023/08/31 14:25:38;;;;;;;3.75;1.65;;;21.20;99.90;;;;;;10132315;28;20394;-72
2023/08/31 14:30:28;;;;;;;8.88;1.85;;;21.20;99.90;;;;;;10110375;28;20038;-72
2023/08/31 14:35:19;;;;;;;4.68;1.40;;;21.30;99.90;;;;;;10110912;28;20119;-71
2023/08/31 14:40:10;;;;;;;3.13;1.20;;;21.20;99.90;;;;;;10132959;28;20172;-73
2023/08/31 14:45:02;;;;;;;3.00;1.50;;;21.20;99.90;;;;;;10122606;28;20402;-72
2023/08/31 14:49:55;;;;;;;3.03;1.27;;;21.20;99.90;;;;;;10128100;28;20044;-71
2023/08/31 14:54:46;;;;;;;2.28;1.17;;;21.10;99.90;;;;;;10105196;28;20049;-72
2023/08/31 14:59:37;;;;;;;2.97;1.58;;;21.00;99.90;;;;;;10129945;28;20547;-72
2023/08/31 15:04:28;;;;;;;3.45;1.63;;;21.10;99.90;;;;;;10119395;28;20124;-71
2023/08/31 15:09:19;;;;;;;3.65;1.15;;;21.10;99.90;;;;;;10124661;28;20093;-73
2023/08/31 15:14:09;;;;;;;4.60;1.70;;;21.00;99.90;;;;;;10131505;28;20443;-72
2023/08/31 15:19:00;;;;;;;3.15;1.58;;;21.10;99.90;;;;;;10135210;28;20456;-73
2023/08/31 15:23:51;;;;;;;6.18;1.85;;;21.20;99.90;;;;;;10135705;28;20047;-74
2023/08/31 15:28:42;;;;;;;4.70;1.80;;;21.10;99.90;;;;;;10121656;28;20561;-74
2023/08/31 15:33:33;;;;;;;4.90;1.55;;;21.20;99.90;;;;;;10105993;28;20024;-72
2023/08/31 15:38:24;;;;;;;4.97;2.10;;;21.10;99.90;;;;;;10122675;28;20028;-73
2023/08/31 15:43:15;;;;;;;5.72;1.80;;;21.10;99.90;;;;;;10124543;28;20028;-73
2023/08/31 15:48:06;;;;;;;3.60;1.48;;;21.10;99.90;;;;;;10127627;28;20094;-73
2023/08/31 15:52:57;;;;;;;2.83;1.70;;;21.20;99.90;;;;;;10106426;28;20093;-73
2023/08/31 15:57:47;;;;;;;2.97;1.40;;;21.10;99.90;;;;;;10129822;28;20174;-72
2023/08/31 16:02:38;;;;;;;10.15;1.60;;;21.10;99.90;;;;;;10116229;28;20039;-72
2023/08/31 16:07:29;;;;;;;4.03;1.90;;;21.20;99.90;;;;;;10108379;28;20037;-72
2023/08/31 16:12:20;;;;;;;4.03;1.67;;;21.20;99.90;;;;;;10096712;28;20375;-73
2023/08/31 16:17:11;;;;;;;4.57;1.95;;;21.20;99.90;;;;;;10122922;28;20036;-73
2023/08/31 16:22:01;;;;;;;4.55;1.83;;;21.20;99.90;;;;;;10093428;28;20025;-73
2023/08/31 16:26:52;;;;;;;4.40;2.22;;;21.30;99.90;;;;;;10131290;28;20036;-73
2023/08/31 16:31:44;;;;;;;3.75;1.52;;;21.20;99.90;;;;;;10120678;28;20103;-72
2023/08/31 16:36:35;;;;;;;2.97;1.70;;;21.20;99.90;;;;;;10114505;28;20025;-73
2023/08/31 16:41:26;;;;;;;3.92;1.63;;;21.10;99.90;;;;;;10127096;28;20024;-71
2023/08/31 16:46:17;;;;;;;5.80;2.83;;;21.00;99.90;;;;;;10122365;28;20037;-72
2023/08/31 16:51:08;;;;;;;4.13;1.70;;;21.10;99.90;;;;;;10132099;28;20021;-72
2023/08/31 16:55:59;;;;;;;7.00;1.65;;;21.10;99.90;;;;;;10106646;28;20029;-75
2023/08/31 17:00:49;;;;;;;2.35;1.48;;;21.10;99.90;;;;;;10116342;28;20148;-74
2023/08/31 17:05:40;;;;;;;4.65;1.67;;;21.00;99.90;;;;;;10126623;28;20070;-72
2023/08/31 17:10:31;;;;;;;5.35;2.40;;;20.90;99.90;;;;;;10115756;28;20045;-75
2023/08/31 17:15:22;;;;;;;4.38;1.55;;;20.90;99.90;;;;;;10118539;28;20283;-74
2023/08/31 17:20:21;;;;;;;6.43;2.88;;;21.00;99.90;;;;;;10124952;28;20036;-77
2023/08/31 17:25:13;;;;;;;4.78;1.80;;;21.00;99.90;;;;;;10134144;28;20617;-77
2023/08/31 17:30:06;;;;;;;3.47;1.67;;;21.00;99.90;;;;;;10132757;28;20610;-77
2023/08/31 17:34:58;;;;;;;3.75;1.77;;;20.90;99.90;;;;;;10114819;28;20035;-76
2023/08/31 17:39:48;;;;;;;4.68;2.38;;;20.90;99.90;;;;;;10138189;28;20101;-76
2023/08/31 17:44:39;;;;;;;7.03;3.72;;;20.90;99.90;;;;;;10126811;28;20534;-75
2023/08/31 17:49:30;;;;;;;4.80;2.67;;;20.90;99.90;;;;;;10137104;28;20052;-75
2023/08/31 17:54:20;;;;;;;8.25;3.15;;;20.90;99.90;;;;;;10121768;28;20044;-76
2023/08/31 17:59:16;;;;;;;5.65;3.13;;;20.90;99.90;;;;;;10101783;28;20115;-75
2023/08/31 18:04:06;;;;;;;;;;;20.80;99.90;;;;;;10123963;28;20017;-75
2023/08/31 18:08:57;;;;;;;4.18;2.58;;;20.80;99.90;;;;;;10106169;28;19917;-76
2023/08/31 18:13:47;;;;;;;7.18;2.83;;;20.90;99.90;;;;;;10122959;28;20125;-75
2023/08/31 18:18:38;;;;;;;6.57;2.35;;;20.80;99.90;;;;;;10118469;28;20209;-76
2023/08/31 18:23:29;;;;;;;3.80;2.42;;;20.90;99.90;;;;;;10135111;28;20020;-76
2023/08/31 18:28:20;;;;;;;5.65;2.40;;;20.80;99.90;;;;;;10125237;28;20087;-76
2023/08/31 18:33:10;;;;;;;9.38;2.72;;;20.80;99.90;;;;;;10130972;28;20510;-76
2023/08/31 18:38:01;;;;;;;7.68;3.75;;;20.80;99.90;;;;;;10124486;28;20162;-76
2023/08/31 18:42:52;;;;;;;5.78;3.95;;;20.80;99.90;;;;;;10126230;28;20099;-76
2023/08/31 18:47:43;;;;;;;6.28;3.08;;;20.70;99.90;;;;;;10108036;28;20182;-75
2023/08/31 18:52:33;;;;;;;5.03;3.55;;;20.80;99.90;;;;;;10121133;28;20045;-76
2023/08/31 18:57:24;;;;;;;5.25;2.53;;;20.80;99.90;;;;;;10104246;28;20033;-76
2023/08/31 19:02:15;;;;;;;3.13;2.60;;;20.80;99.90;;;;;;10129323;28;20407;-75
2023/08/31 19:07:05;;;;;;;4.97;2.63;;;20.70;99.90;;;;;;10122947;28;20518;-76
2023/08/31 19:11:56;;;;;;;5.70;2.83;;;20.70;99.90;;;;;;10126646;28;20021;-76
2023/08/31 19:16:47;;;;;;;6.22;3.17;;;20.60;99.90;;;;;;10133929;28;20056;-75
2023/08/31 19:21:38;;;;;;;6.95;3.15;;;20.60;99.90;;;;;;10133470;28;20031;-75
2023/08/31 19:26:28;;;;;;;7.28;3.38;;;20.50;99.90;;;;;;10117630;28;20084;-75
2023/08/31 19:31:20;;;;;;;8.60;3.15;;;20.40;99.90;;;;;;10131635;28;20032;-76
2023/08/31 19:36:11;;;;;;;4.65;2.88;;;20.50;99.90;;;;;;10115374;28;20548;-75
2023/08/31 19:41:02;;;;;;;4.55;2.90;;;20.40;99.90;;;;;;10103493;28;20032;-76
2023/08/31 19:45:52;;;;;;;7.00;3.72;;;20.40;99.90;;;;;;10116624;28;20478;-76
2023/08/31 19:50:43;;;;;;;5.20;2.67;;;20.40;99.90;;;;;;10113363;28;20032;-76
2023/08/31 19:55:35;;;;;;;3.80;2.17;;;20.40;99.90;;;;;;10115456;28;20049;-76
2023/08/31 20:00:26;;;;;;;4.30;2.47;;;20.40;99.90;;;;;;10108873;28;20251;-76
2023/08/31 20:05:19;;;;;;;4.63;2.22;;;20.40;99.90;;;;;;10134806;28;20444;-76
2023/08/31 20:10:10;;;;;;;4.57;2.47;;;20.30;99.90;;;;;;10126408;28;20144;-76
2023/08/31 20:15:00;;;;;;;2.90;2.00;;;20.30;99.90;;;;;;10116734;28;20129;-76
2023/08/31 20:19:51;;;;;;;7.25;2.10;;;20.20;99.90;;;;;;10120042;28;20378;-76
2023/08/31 20:24:42;;;;;;;5.40;2.47;;;20.10;99.90;;;;;;10119851;28;20035;-76
2023/08/31 20:29:33;;;;;;;3.35;1.80;;;20.10;99.90;;;;;;10135423;28;20114;-75
2023/08/31 20:34:23;;;;;;;4.20;2.30;;;20.20;99.90;;;;;;10111177;28;20085;-76
2023/08/31 20:39:14;;;;;;;4.03;2.28;;;20.10;99.90;;;;;;10099068;28;20367;-75
2023/08/31 20:44:05;;;;;;;6.50;2.53;;;20.10;99.90;;;;;;10131196;28;20095;-76
2023/08/31 20:48:56;;;;;;;4.13;2.25;;;20.20;99.90;;;;;;10138891;28;20119;-75
2023/08/31 20:53:48;;;;;;;4.82;2.80;;;20.10;99.90;;;;;;10139655;28;20111;-76
2023/08/31 20:58:40;;;;;;;6.88;2.80;;;20.10;99.90;;;;;;10139278;28;20024;-74
2023/08/31 21:03:30;;;;;;;7.20;3.60;;;20.10;99.90;;;;;;10139527;28;20033;-73
2023/08/31 21:08:26;;;;;;;4.97;2.72;;;20.00;99.90;;;;;;10138153;28;20115;-75
2023/08/31 21:13:16;;;;;;;;;;;20.00;99.90;;;;;;10129068;28;20017;-74
2023/08/31 21:18:07;;;;;;;8.52;2.92;;;19.90;99.90;;;;;;10125687;28;19909;-70
2023/08/31 21:23:24;;;;;;;4.47;2.40;;;19.90;99.90;;;;;;10131882;28;20031;-74
2023/08/31 21:28:14;;;;;;;5.20;2.22;;;19.90;99.90;;;;;;10112327;28;20033;-76
2023/08/31 21:33:08;;;;;;;4.22;2.28;;;19.90;99.90;;;;;;10131056;28;20475;-75
2023/08/31 21:37:58;;;;;;;3.38;2.10;;;19.90;99.90;;;;;;10132319;28;20071;-75
2023/08/31 21:42:49;;;;;;;5.05;2.60;;;19.90;99.90;;;;;;10125814;28;20025;-74
2023/08/31 21:47:40;;;;;;;3.10;2.45;;;19.80;99.90;;;;;;10141061;28;20032;-75
2023/08/31 21:52:30;;;;;;;3.45;2.55;;;19.80;99.90;;;;;;10116756;28;20045;-77
2023/08/31 21:57:21;;;;;;;6.57;2.95;;;19.70;99.90;;;;;;10138117;28;20078;-76
2023/08/31 22:02:13;;;;;;;4.75;2.72;;;19.80;99.90;;;;;;10108738;28;20031;-76
2023/08/31 22:07:04;;;;;;;4.20;3.35;;;19.70;99.90;;;;;;10105718;28;20518;-76
2023/08/31 22:11:55;;;;;;;5.30;2.80;;;19.70;99.90;;;;;;10122925;28;20105;-76
2023/08/31 22:16:46;;;;;;;6.43;4.10;;;19.60;99.90;;;;;;10125707;28;20115;-76
2023/08/31 22:21:38;;;;;;;8.65;3.30;;;19.70;99.90;;;;;;10103555;28;20087;-76
2023/08/31 22:26:29;;;;;;;5.88;3.22;;;19.70;99.90;;;;;;10109108;28;20048;-76
2023/08/31 22:31:19;;;;;;;9.25;3.00;;;19.70;99.90;;;;;;10118161;28;20115;-76
2023/08/31 22:36:10;;;;;;;3.63;2.78;;;19.90;99.90;;;;;;10127812;28;20025;-76
2023/08/31 22:41:05;;;;;;;5.50;2.47;;;19.90;99.90;;;;;;10122194;28;20120;-76
2023/08/31 22:45:56;;;;;;;;;;;19.80;99.90;;;;;;10129714;28;20604;-76
2023/08/31 22:50:47;;;;;;;3.15;2.08;;;19.90;99.90;;;;;;10109767;28;19991;-75
2023/08/31 22:55:38;;;;;;;4.82;2.22;;;19.90;99.90;;;;;;10103959;28;20060;-75
2023/08/31 23:00:29;;;;;;;2.08;1.65;;;20.00;99.90;;;;;;10117123;28;20028;-75
2023/08/31 23:05:19;;;;;;;2.72;1.58;;;19.90;99.90;;;;;;10102398;28;20033;-75
2023/08/31 23:10:10;;;;;;;2.47;1.45;;;19.90;99.90;;;;;;10124908;28;20044;-75
2023/08/31 23:15:01;;;;;;;2.30;1.40;;;19.90;99.90;;;;;;10114782;28;20040;-76
2023/08/31 23:19:52;;;;;;;2.45;1.48;;;19.90;99.90;;;;;;10137348;28;20139;-76
2023/08/31 23:24:42;;;;;;;4.95;1.67;;;19.90;99.90;;;;;;10130742;28;20041;-76
2023/08/31 23:29:33;;;;;;;5.90;2.25;;;19.90;99.90;;;;;;10122685;28;20046;-76
2023/08/31 23:34:23;;;;;;;3.05;1.80;;;19.80;99.90;;;;;;10106542;28;20036;-76
2023/08/31 23:39:14;;;;;;;3.90;1.63;;;19.80;99.90;;;;;;10117591;28;20437;-76
2023/08/31 23:44:05;;;;;;;3.95;1.52;;;19.90;99.90;;;;;;10100550;28;20055;-76
2023/08/31 23:48:57;;;;;;;2.75;1.77;;;19.90;99.90;;;;;;10101974;28;20380;-76
2023/08/31 23:53:48;;;;;;;2.45;1.35;;;20.00;99.90;;;;;;10123634;28;20033;-76
2023/08/31 23:58:38;;;;;;;4.50;2.00;;;19.90;99.90;;;;;;10113235;28;20031;-76
